Surface/Atmospheric History
05/28/2020 05:03  to  5/29/2020 05:03
Change End Date:
To complete the export process:
1) Select all of the data below
2) Copy the data to the clipboard
3) Open a word processor such as Notepad
4) Paste the data into the word processor
5) Save the file

Date/Time (MDT), SfStat, SfTemp, PvtTemp, SubTemp, AirTemp, RH, Dewpoint, AvgWindSpeed, GustWindSpeed, WindDirection, PrecipType, PrecipIntenisity
05/29/2020 05:00, Dry , 53.6 , , 64, 45, 80, 39, 4, 5, SW, None, None
05/29/2020 04:54, Dry , 53.6 , , 64, 45, 81, 40, 2, 3, SW, None, None
05/29/2020 04:50, Dry , 53.6 , , 64, 46, 79, 39, 2, 3, SW, None, None
05/29/2020 04:40, Dry , 53.4 , , 64, 44, 81, 39, 3, 4, SW, None, None
05/29/2020 04:40, Dry , 53.4 , , 64, 44, 81, 39, 3, 4, SW, None, None
05/29/2020 04:30, Dry , 53.4 , , 64, 44, 82, 39, 2, 2, S, None, None
05/29/2020 04:24, Dry , 53.4 , , 64, 43, 84, 38, 1, 4, S, None, None
05/29/2020 04:20, Dry , 53.2 , , 64, 43, 84, 39, 2, 4, S, None, None
05/29/2020 04:10, Dry , 52.9 , , 64, 42, 86, 38, 3, 5, S, None, None
05/29/2020 04:10, Dry , 52.9 , , 64, 42, 86, 38, 3, 5, S, None, None
05/29/2020 04:00, Dry , 52.3 , , 64, 42, 85, 38, 4, 5, S, None, None
05/29/2020 03:54, Dry , 52.5 , , 64, 42, 85, 37, 4, 4, S, None, None
05/29/2020 03:50, Dry , 52.5 , , 64, 42, 84, 38, 3, 4, S, None, None
05/29/2020 03:40, Dry , 52.9 , , 64, 42, 84, 38, 3, 4, S, None, None
05/29/2020 03:39, Dry , 52.9 , , 64, 42, 85, 38, 2, 4, S, None, None
05/29/2020 03:30, Dry , 53.2 , , 64, 42, 82, 37, 4, 6, S, None, None
05/29/2020 03:24, Dry , 53.2 , , 64, 43, 81, 38, 4, 6, S, None, None
05/29/2020 03:20, Dry , 53.4 , , 64, 44, 79, 38, 4, 5, S, None, None
05/29/2020 03:10, Dry , 53.6 , , 64, 43, 82, 38, 4, 4, S, None, None
05/29/2020 03:10, Dry , 53.6 , , 64, 43, 82, 38, 4, 4, S, None, None
05/29/2020 03:00, Dry , 54 , , 64, 44, 79, 38, 4, 5, S, None, None
05/29/2020 02:54, Dry , 54.1 , , 64, 44, 77, 38, 4, 4, S, None, None
05/29/2020 02:50, Dry , 54.1 , , 64, 45, 78, 38, 4, 4, S, None, None
05/29/2020 02:40, Dry , 54.5 , , 64, 44, 78, 38, 3, 4, S, None, None
05/29/2020 02:39, Dry , 54.5 , , 64, 44, 78, 38, 3, 4, S, None, None
05/29/2020 02:30, Dry , 54.5 , , 64, 43, 80, 37, 4, 4, S, None, None
05/29/2020 02:24, Dry , 54.7 , , 65, 44, 77, 37, 3, 4, S, None, None
05/29/2020 02:20, Dry , 54.7 , , 65, 43, 80, 38, 2, 4, S, None, None
05/29/2020 02:10, Dry , 55.2 , , 65, 44, 76, 37, 1, 2, S, None, None
05/29/2020 02:10, Dry , 55.2 , , 65, 44, 76, 37, 1, 2, S, None, None
05/29/2020 02:00, Dry , 55.6 , , 65, 45, 75, 38, 2, 3, SE, None, None
05/29/2020 01:55, Dry , 55.8 , , 65, 47, 69, 37, 0, 0, SW, None, None
05/29/2020 01:50, Dry , 55.9 , , 65, 47, 68, 37, 0, 2, SW, None, None
05/29/2020 01:40, Dry , 56.3 , , 65, 49, 65, 38, 1, 2, S, None, None
05/29/2020 01:39, Dry , 56.3 , , 65, 49, 65, 38, 1, 2, S, None, None
05/29/2020 01:30, Dry , 56.7 , , 65, 49, 65, 38, 0, 1, S, None, None
05/29/2020 01:24, Dry , 56.8 , , 65, 49, 65, 38, 0, 3, S, None, None
05/29/2020 01:19, Dry , 56.8 , , 65, 49, 65, 38, 1, 4, SW, None, None
05/29/2020 01:10, Dry , 57 , , 65, 49, 65, 38, 1, 4, S, None, None
05/29/2020 01:09, Dry , 57 , , 65, 49, 65, 38, 1, 4, NE, None, None
05/29/2020 00:59, Dry , 57.2 , , 65, 49, 66, 38, 2, 4, SW, None, None
05/29/2020 00:54, Dry , 57.6 , , 65, 49, 64, 38, 2, 4, SE, None, None
05/29/2020 00:49, Dry , 57.7 , , 65, 50, 62, 38, 2, 12, SE, None, None
05/29/2020 00:39, Dry , 58.1 , , 65, 52, 57, 38, 7, 10, E, None, None
05/29/2020 00:39, Dry , 58.1 , , 65, 52, 57, 38, 6, 10, E, None, None
05/29/2020 00:29, Dry , 58.1 , , 65, 49, 67, 38, 1, 2, SE, None, None
05/29/2020 00:25, Dry , 58.5 , , 65, 49, 67, 38, 1, 2, S, None, None
05/29/2020 00:19, Dry , 58.6 , , 65, 49, 67, 38, 1, 2, SW, None, None
05/29/2020 00:09, Dry , 59 , , 65, 51, 61, 38, 1, 4, NW, None, None
05/29/2020 00:09, Dry , 59 , , 65, 51, 61, 38, 1, 4, NW, None, None
05/28/2020 23:59, Dry , 59.4 , , 65, 51, 62, 38, 1, 6, NW, None, None
05/28/2020 23:54, Dry , 59.4 , , 65, 51, 62, 39, 4, 9, NE, None, None
05/28/2020 23:49, Dry , 59.5 , , 65, 51, 61, 38, 6, 11, NE, None, None
05/28/2020 23:39, Dry , 59.9 , , 65, 52, 60, 39, 9, 12, E, None, None
05/28/2020 23:39, Dry , 59.9 , , 65, 52, 60, 39, 9, 12, E, None, None
05/28/2020 23:29, Dry , 60.3 , , 64, 52, 59, 39, 9, 14, E, None, None
05/28/2020 23:24, Dry , 60.4 , , 64, 53, 58, 39, 11, 16, E, None, None
05/28/2020 23:19, Dry , 60.6 , , 64, 53, 59, 39, 12, 16, E, None, None
05/28/2020 23:09, Dry , 61.2 , , 64, 53, 56, 38, 12, 14, E, None, None
05/28/2020 23:09, Dry , 61.2 , , 64, 53, 56, 38, 12, 14, E, None, None
05/28/2020 22:59, Dry , 61.7 , , 64, 54, 55, 39, 12, 17, E, None, None
05/28/2020 22:54, Dry , 61.9 , , 64, 54, 55, 39, 12, 17, E, None, None
05/28/2020 22:49, Dry , 62.1 , , 64, 55, 56, 39, 14, 17, E, None, None
05/28/2020 22:39, Dry , 62.8 , , 64, 55, 55, 39, 13, 18, E, None, None
05/28/2020 22:39, Dry , 62.8 , , 64, 55, 55, 39, 13, 18, E, None, None
05/28/2020 22:29, Dry , 63 , , 64, 54, 58, 40, 12, 16, NE, None, None
05/28/2020 22:24, Dry , 63.3 , , 64, 55, 58, 40, 11, 15, E, None, None
05/28/2020 22:19, Dry , 63.5 , , 64, 54, 60, 40, 11, 13, E, None, None
05/28/2020 22:09, Dry , 64 , , 64, 53, 63, 41, 9, 11, E, None, None
05/28/2020 22:09, Dry , 64 , , 64, 53, 63, 41, 9, 11, E, None, None
05/28/2020 21:59, Dry , 64.9 , , 64, 53, 65, 42, 8, 9, E, None, None
05/28/2020 21:53, Dry , 65.3 , , 64, 54, 64, 42, 8, 11, E, None, None
05/28/2020 21:49, Dry , 65.7 , , 64, 55, 62, 42, 9, 11, E, None, None
05/28/2020 21:39, Dry , 66.4 , , 64, 54, 63, 42, 11, 12, E, None, None
05/28/2020 21:38, Dry , 66.4 , , 64, 54, 63, 42, 11, 12, E, None, None
05/28/2020 21:29, Dry , 67.3 , , 64, 55, 63, 43, 11, 12, E, None, None
05/28/2020 21:23, Dry , 68 , , 64, 55, 63, 43, 11, 12, E, None, None
05/28/2020 21:19, Dry , 68.4 , , 64, 56, 62, 43, 10, 12, E, None, None
05/28/2020 21:09, Dry , 69.8 , , 64, 56, 61, 43, 10, 11, E, None, None
05/28/2020 21:08, Dry , 69.8 , , 64, 56, 61, 43, 11, 11, E, None, None
05/28/2020 20:59, Dry , 71.4 , , 64, 58, 58, 44, 11, 12, E, None, None
05/28/2020 20:54, Dry , 72.1 , , 64, 59, 57, 44, 10, 12, E, None, None
05/28/2020 20:49, Dry , 73.2 , , 64, 60, 54, 44, 9, 12, E, None, None
05/28/2020 20:39, Dry , 75.2 , , 63, 61, 51, 43, 9, 12, E, None, None
05/28/2020 20:39, Dry , 75.2 , , 63, 61, 51, 43, 9, 12, E, None, None
05/28/2020 20:29, Dry , 77 , , 63, 62, 51, 43, 11, 14, E, None, None
05/28/2020 20:24, Dry , 77.9 , , 63, 62, 51, 44, 11, 12, E, None, None
05/28/2020 20:19, Dry , 78.6 , , 63, 63, 50, 44, 10, 14, E, None, None
05/28/2020 20:09, Dry , 80.2 , , 63, 64, 49, 44, 11, 14, NE, None, None
05/28/2020 20:09, Dry , 80.2 , , 63, 64, 49, 44, 11, 14, NE, None, None
05/28/2020 19:58, Dry , 82 , , 63, 64, 47, 44, 12, 16, E, None, None
05/28/2020 19:54, Dry , 82.8 , , 63, 64, 45, 43, 13, 16, NE, None, None
05/28/2020 19:48, Dry , 83.5 , , 63, 65, 47, 44, 11, 16, NE, None, None
05/28/2020 19:39, Dry , 85.1 , , 63, 65, 42, 42, 12, 16, NE, None, None
05/28/2020 19:38, Dry , 85.1 , , 63, 65, 43, 43, 12, 16, NE, None, None
05/28/2020 19:28, Dry , 86.2 , , 63, 65, 42, 42, 12, 17, NE, None, None
05/28/2020 19:24, Dry , 86.9 , , 63, 65, 43, 43, 12, 17, E, None, None
05/28/2020 19:18, Dry , 87.3 , , 62, 66, 42, 42, 13, 16, NE, None, None
05/28/2020 19:09, Dry , 88.5 , , 62, 66, 44, 43, 14, 18, E, None, None
05/28/2020 19:08, Dry , 88.5 , , 62, 66, 44, 43, 14, 18, E, None, None
05/28/2020 18:58, Dry , 90 , , 62, 66, 41, 42, 13, 17, NE, None, None
05/28/2020 18:54, Dry , 90.5 , , 62, 66, 41, 42, 12, 17, NE, None, None
05/28/2020 18:48, Dry , 91 , , 62, 66, 42, 42, 12, 17, NE, None, None
05/28/2020 18:39, Dry , 92.3 , , 62, 66, 40, 41, 13, 17, NE, None, None
05/28/2020 18:38, Dry , 92.3 , , 62, 66, 40, 42, 14, 17, NE, None, None
05/28/2020 18:28, Dry , 93.7 , , 62, 66, 39, 40, 14, 17, NE, None, None
05/28/2020 18:24, Dry , 94.6 , , 62, 67, 39, 41, 12, 15, NE, None, None
05/28/2020 18:18, Dry , 93.6 , , 62, 66, 42, 42, 11, 15, NE, None, None
05/28/2020 18:09, Dry , 92.8 , , 62, 65, 42, 42, 11, 14, NE, None, None
05/28/2020 18:08, Dry , 92.8 , , 62, 65, 42, 42, 10, 14, NE, None, None
05/28/2020 17:58, Dry , 94.1 , , 62, 65, 39, 40, 13, 19, NE, None, None
05/28/2020 17:54, Dry , 96.4 , , 62, 66, 39, 41, 16, 19, NE, None, None
05/28/2020 17:48, Dry , 100 , , 62, 66, 39, 41, 11, 18, E, None, None
05/28/2020 17:39, Dry , 99.5 , , 61, 67, 39, 41, 12, 18, NE, None, None
05/28/2020 17:38, Dry , 99.5 , , 61, 67, 40, 42, 10, 17, NE, None, None
05/28/2020 17:28, Dry , 96.1 , , 61, 66, 40, 41, 11, 14, NE, None, None
05/28/2020 17:24, Dry , 93.7 , , 61, 65, 41, 41, 11, 14, NE, None, None
05/28/2020 17:18, Dry , 94.5 , , 61, 66, 40, 41, 11, 14, NE, None, None
05/28/2020 17:09, Dry , 95 , , 61, 65, 42, 42, 9, 15, NE, None, None
05/28/2020 17:08, Dry , 94.6 , , 61, 65, 43, 42, 9, 15, NE, None, None
05/28/2020 16:58, Dry , 96.8 , , 61, 65, 43, 42, 9, 12, NE, None, None
05/28/2020 16:54, Dry , 97.2 , , 61, 65, 42, 42, 9, 12, E, None, None
05/28/2020 16:48, Dry , 100 , , 61, 65, 40, 41, 10, 14, E, None, None
05/28/2020 16:39, Dry , 105.3 , , 61, 66, 37, 39, 9, 13, E, None, None
05/28/2020 16:38, Dry , 105.8 , , 61, 67, 41, 42, 9, 12, E, None, None
05/28/2020 16:28, Dry , 108 , , 60, 67, 39, 42, 11, 17, E, None, None
05/28/2020 16:24, Dry , 108.3 , , 60, 67, 38, 41, 11, 17, NE, None, None
05/28/2020 16:18, Dry , 108.1 , , 60, 66, 38, 40, 7, 16, NE, None, None
05/28/2020 16:09, Dry , 107.1 , , 60, 66, 38, 40, 7, 15, NE, None, None
05/28/2020 16:08, Dry , 107.8 , , 60, 67, 39, 41, 7, 15, NE, None, None
05/28/2020 15:58, Dry , 108.3 , , 60, 66, 37, 39, 9, 14, NE, None, None
05/28/2020 15:54, Dry , 108.7 , , 60, 66, 38, 40, 11, 14, E, None, None
05/28/2020 15:48, Dry , 108.9 , , 60, 66, 38, 40, 10, 15, E, None, None
05/28/2020 15:39, Dry , 108.1 , , 60, 65, 38, 40, 10, 16, NE, None, None
05/28/2020 15:38, Dry , 108.3 , , 60, 65, 38, 39, 11, 16, E, None, None
05/28/2020 15:28, Dry , 109 , , 60, 65, 39, 40, 8, 16, E, None, None
05/28/2020 15:24, Dry , 108 , , 60, 65, 38, 39, 7, 16, NE, None, None
05/28/2020 15:18, Dry , 109 , , 60, 65, 39, 40, 7, 17, E, None, None
05/28/2020 15:09, Dry , 107.8 , , 60, 65, 39, 39, 13, 17, E, None, None
05/28/2020 15:08, Dry , 108 , , 60, 65, 39, 40, 12, 16, NE, None, None
05/28/2020 14:57, Dry , 107.8 , , 60, 64, 40, 40, 11, 17, NE, None, None
05/28/2020 14:54, Dry , 107.8 , , 60, 65, 41, 40, 9, 17, NE, None, None
05/28/2020 14:47, Dry , 107.8 , , 60, 64, 38, 38, 12, 18, NE, None, None
05/28/2020 14:39, Dry , 107.4 , , 60, 63, 38, 38, 10, 19, NE, None, None
05/28/2020 14:37, Dry , 107.1 , , 60, 64, 39, 38, 13, 19, NE, None, None
05/28/2020 14:27, Dry , 106.9 , , 60, 63, 40, 39, 12, 17, E, None, None
05/28/2020 14:24, Dry , 107.8 , , 60, 63, 40, 39, 9, 20, E, None, None
05/28/2020 14:17, Dry , 106.2 , , 60, 64, 39, 38, 13, 20, NE, None, None
05/28/2020 14:09, Dry , 106.3 , , 59, 63, 38, 38, 10, 14, E, None, None
05/28/2020 14:07, Dry , 106 , , 59, 64, 40, 39, 11, 14, E, None, None
05/28/2020 13:57, Dry , 104 , , 59, 63, 38, 37, 15, 19, NE, None, None
05/28/2020 13:54, Dry , 103.3 , , 59, 63, 40, 39, 13, 19, E, None, None
05/28/2020 13:47, Dry , 102.6 , , 59, 62, 39, 37, 15, 20, NE, None, None
05/28/2020 13:39, Dry , 102.9 , , 59, 63, 37, 37, 12, 18, E, None, None
05/28/2020 13:37, Dry , 102.9 , , 59, 62, 41, 39, 10, 18, E, None, None
05/28/2020 13:27, Dry , 100.9 , , 59, 63, 38, 37, 14, 21, NE, None, None
05/28/2020 13:24, Dry , 100.9 , , 59, 62, 37, 36, 18, 21, NE, None, None
05/28/2020 13:17, Dry , 99.7 , , 59, 62, 39, 37, 17, 23, NE, None, None
05/28/2020 13:09, Dry , 98.2 , , 59, 62, 38, 37, 15, 19, NE, None, None
05/28/2020 13:07, Dry , 98.1 , , 59, 62, 39, 37, 14, 20, E, None, None
05/28/2020 12:57, Dry , 97 , , 59, 61, 37, 35, 14, 22, NE, None, None
05/28/2020 12:54, Dry , 96.4 , , 59, 61, 36, 34, 19, 22, NE, None, None
05/28/2020 12:47, Dry , 98.6 , , 59, 62, 36, 35, 17, 22, NE, None, None
05/28/2020 12:39, Dry , 97.7 , , 59, 61, 35, 33, 16, 20, NE, None, None
05/28/2020 12:37, Dry , 96.6 , , 59, 61, 38, 35, 15, 24, NE, None, None
05/28/2020 12:27, Dry , 95.9 , , 59, 60, 37, 35, 16, 22, E, None, None
05/28/2020 12:24, Dry , 93.9 , , 59, 61, 36, 34, 16, 22, E, None, None
05/28/2020 12:17, Dry , 93.7 , , 59, 61, 35, 33, 16, 25, E, None, None
05/28/2020 12:09, Dry , 93 , , 59, 60, 35, 33, 17, 22, NE, None, None
05/28/2020 12:07, Dry , 93.6 , , 59, 60, 36, 33, 17, 22, E, None, None
05/28/2020 11:57, Dry , 91 , , 59, 60, 36, 33, 15, 23, E, None, None
05/28/2020 11:54, Dry , 91.6 , , 59, 61, 36, 34, 19, 23, NE, None, None
05/28/2020 11:47, Dry , 90.3 , , 59, 60, 34, 31, 17, 24, NE, None, None
05/28/2020 11:39, Dry , 90.5 , , 59, 58, 37, 32, 16, 25, NE, None, None
05/28/2020 11:37, Dry , 90.1 , , 59, 59, 35, 31, 19, 25, NE, None, None
05/28/2020 11:27, Dry , 88.3 , , 59, 59, 37, 33, 14, 23, E, None, None
05/28/2020 11:24, Dry , 87.6 , , 59, 60, 35, 32, 19, 23, NE, None, None
05/28/2020 11:17, Dry , 86.9 , , 59, 58, 37, 32, 16, 23, E, None, None
05/28/2020 11:09, Dry , 86.4 , , 59, 59, 37, 33, 16, 25, E, None, None
05/28/2020 11:07, Dry , 85.6 , , 59, 58, 36, 31, 19, 25, NE, None, None
05/28/2020 10:57, Dry , 84.6 , , 59, 58, 36, 32, 19, 25, NE, None, None
05/28/2020 10:54, Dry , 84.2 , , 59, 58, 36, 31, 19, 25, E, None, None
05/28/2020 10:47, Dry , 82.9 , , 59, 58, 36, 31, 17, 25, NE, None, None
05/28/2020 10:39, Dry , 82.2 , , 59, 58, 37, 32, 17, 23, E, None, None
05/28/2020 10:37, Dry , 81.9 , , 60, 57, 37, 32, 18, 23, E, None, None
05/28/2020 10:27, Dry , 80.2 , , 60, 57, 37, 32, 17, 28, E, None, None
05/28/2020 10:25, Dry , 79.9 , , 60, 56, 39, 32, 19, 28, E, None, None
05/28/2020 10:17, Dry , 78.6 , , 60, 56, 39, 31, 17, 24, NE, None, None
05/28/2020 10:09, Dry , 77.7 , , 60, 56, 35, 29, 21, 24, NE, None, None
05/28/2020 10:07, Dry , 77.5 , , 60, 56, 40, 32, 15, 21, E, None, None
05/28/2020 09:57, Dry , 76.8 , , 60, 55, 38, 31, 17, 21, E, None, None
05/28/2020 09:54, Dry , 76.6 , , 60, 56, 39, 32, 17, 21, E, None, None
05/28/2020 09:47, Dry , 75.4 , , 60, 55, 38, 30, 17, 20, E, None, None
05/28/2020 09:39, Dry , 73.4 , , 60, 55, 38, 31, 17, 20, NE, None, None
05/28/2020 09:37, Dry , 73 , , 60, 55, 40, 31, 14, 20, NE, None, None
05/28/2020 09:26, Dry , 71.1 , , 60, 54, 48, 35, 11, 17, E, None, None
05/28/2020 09:24, Dry , 70.9 , , 60, 54, 49, 35, 12, 17, NE, None, None
05/28/2020 09:16, Dry , 70 , , 60, 53, 53, 37, 11, 17, E, None, None
05/28/2020 09:09, Dry , 68.9 , , 60, 53, 54, 37, 12, 15, NE, None, None
05/28/2020 09:06, Dry , 68.7 , , 60, 52, 54, 37, 12, 14, NE, None, None
05/28/2020 08:56, Dry , 67.3 , , 60, 50, 64, 38, 4, 7, N, None, None
05/28/2020 08:54, Dry , 66.6 , , 60, 50, 64, 39, 6, 7, NE, None, None
05/28/2020 08:46, Dry , 65.3 , , 60, 49, 65, 38, 4, 7, N, None, None
05/28/2020 08:39, Dry , 63.9 , , 60, 48, 70, 39, 3, 6, N, None, None
05/28/2020 08:36, Dry , 63.5 , , 60, 48, 71, 39, 2, 6, N, None, None
05/28/2020 08:26, Dry , 61.7 , , 60, 47, 72, 39, 4, 6, N, None, None
05/28/2020 08:24, Dry , 61 , , 60, 47, 72, 38, 3, 4, N, None, None
05/28/2020 08:16, Dry , 59.7 , , 60, 46, 73, 38, 2, 4, N, None, None
05/28/2020 08:10, Dry , 59.4 , , 60, 46, 72, 37, 3, 4, N, None, None
05/28/2020 08:06, Dry , 58.3 , , 60, 46, 74, 38, 3, 4, N, None, None
05/28/2020 07:56, Dry , 57.9 , , 60, 46, 73, 38, 1, 2, N, None, None
05/28/2020 07:55, Dry , 58.1 , , 60, 46, 71, 37, 2, 2, NE, None, None
05/28/2020 07:46, Dry , 57.2 , , 60, 45, 72, 37, 1, 3, NW, None, None
05/28/2020 07:39, Dry , 56.1 , , 61, 44, 75, 37, 1, 3, NW, None, None
05/28/2020 07:36, Dry , 55.2 , , 61, 44, 76, 37, 1, 2, NW, None, None
05/28/2020 07:26, Dry , 53.8 , , 61, 43, 78, 37, 0, 2, W, None, None
05/28/2020 07:24, Dry , 53.8 , , 61, 43, 79, 37, 1, 2, W, None, None
05/28/2020 07:16, Dry , 52.9 , , 61, 42, 78, 36, 0, 1, SW, None, None
05/28/2020 07:09, Dry , 52.3 , , 61, 42, 77, 36, 0, 2, NW, None, None
05/28/2020 07:06, Dry , 52.2 , , 61, 42, 78, 36, 1, 2, NW, None, None
05/28/2020 06:56, Dry , 50.9 , , 61, 42, 82, 37, 1, 2, W, None, None
05/28/2020 06:54, Dry , 50.7 , , 61, 41, 81, 36, 1, 2, NW, None, None
05/28/2020 06:46, Dry , 49.8 , , 61, 40, 82, 35, 1, 3, NW, None, None
05/28/2020 06:39, Dry , 49.3 , , 61, 39, 87, 36, 2, 4, S, None, None
05/28/2020 06:36, Dry , 49.1 , , 61, 39, 85, 35, 2, 4, S, None, None
05/28/2020 06:26, Dry , 48 , , 61, 38, 86, 34, 3, 4, S, None, None
05/28/2020 06:25, Dry , 47.8 , , 61, 38, 85, 34, 3, 4, S, None, None
05/28/2020 06:16, Dry , 47.1 , , 61, 38, 85, 34, 3, 4, SE, None, None
05/28/2020 06:09, Dry , 46.9 , , 61, 37, 86, 33, 3, 4, SE, None, None
05/28/2020 06:06, Dry , 46.8 , , 61, 37, 89, 34, 3, 4, SE, None, None
05/28/2020 05:56, Dry , 46.4 , , 61, 35, 89, 32, 3, 4, SE, None, None
05/28/2020 05:53, Dry , 46.4 , , 61, 35, 89, 32, 4, 4, SE, None, None
05/28/2020 05:46, Dry , 46.6 , , 61, 35, 86, 32, 3, 3, E, None, None
05/28/2020 05:38, Dry , 46.6 , , 62, 37, 84, 33, 2, 2, SE, None, None
05/28/2020 05:36, Dry , 46.8 , , 62, 37, 84, 33, 2, 2, SE, None, None
05/28/2020 05:26, Dry , 46.6 , , 62, 37, 85, 33, 2, 2, SE, None, None
05/28/2020 05:23, Dry , 46.6 , , 62, 36, 86, 32, 1, 2, SE, None, None
05/28/2020 05:16, Dry , 46.8 , , 62, 38, 81, 33, 1, 5, E, None, None
05/28/2020 05:08, Dry , 46.8 , , 62, 37, 83, 33, 4, 6, E, None, None
05/28/2020 05:06, Dry , 46.9 , , 62, 37, 82, 32, 5, 6, E, None, None
Change End Date:

Copyright © 1998-2015 Vaisala, Inc.
All Rights Reserved
Send comments about the data to:
SCAN Web ® is a registered trademark of Vaisala, Inc.
SCAN Web Version 6.0